Time;durP1;ratioP1;P1;durP2;ratioP2;P2;SDS_P1;SDS_P2;PMS_P1;PMS_P2;Temp;Humidity;BMP_temperature;BMP_pressure;BME280_temperature;BME280_humidity;BME280_pressure;Samples;Min_cycle;Max_cycle;Signal;HPM_P1;HPM_P2
2022/08/05 00:00:35;;;;;;;;;4.00;3.00;;;;;21.46;62.89;100660.19;5021279;28;45557;-83
2022/08/05 00:03:00;;;;;;;;;4.00;4.00;;;;;21.42;62.56;100710.38;5021615;28;45677;-88
2022/08/05 00:08:47;;;;;;;;;5.50;3.50;;;;;21.37;62.97;100835.38;5023732;28;46084;-84
2022/08/05 00:11:14;;;;;;;;;4.00;3.00;;;;;21.28;61.88;100890.53;5006438;28;46081;-84
2022/08/05 00:13:41;;;;;;;;;6.00;4.00;;;;;21.28;62.76;100903.00;5025686;28;45785;-83
2022/08/05 00:16:09;;;;;;;;;4.50;3.75;;;;;21.22;62.36;100933.84;5023322;28;45664;-80
2022/08/05 00:18:42;;;;;;;;;4.00;3.00;;;;;21.16;62.69;100941.72;5023047;28;45666;-87
2022/08/05 00:21:09;;;;;;;;;3.75;3.50;;;;;21.09;62.97;100885.56;5022994;28;45633;-84
2022/08/05 00:23:36;;;;;;;;;3.50;3.00;;;;;21.03;62.62;100909.38;5022893;28;45517;-82
2022/08/05 00:26:02;;;;;;;;;7.00;5.00;;;;;20.86;63.07;100889.94;5005224;28;47291;-89
2022/08/05 00:28:27;;;;;;;;;4.25;3.75;;;;;20.74;62.99;100947.19;5026412;28;45643;-88
2022/08/05 00:30:53;;;;;;;;;3.00;3.00;;;;;20.58;62.84;100865.47;5011892;28;45474;-85
2022/08/05 00:33:18;;;;;;;;;3.25;2.75;;;;;20.45;63.53;100764.84;5028595;28;45645;-84
2022/08/05 00:39:06;;;;;;;;;4.00;2.50;;;;;20.36;63.78;100930.03;5018577;28;45792;-86
2022/08/05 00:41:33;;;;;;;;;3.75;2.75;;;;;20.34;63.42;100978.13;5019595;28;45699;-90
2022/08/05 00:43:59;;;;;;;;;3.25;2.00;;;;;20.29;63.85;100958.28;5017833;28;45639;-85
2022/08/05 00:46:25;;;;;;;;;2.25;2.25;;;;;20.15;64.06;100879.91;5017276;28;46529;-87
2022/08/05 00:48:50;;;;;;;;;4.00;3.50;;;;;20.11;63.88;100863.44;5016174;28;45684;-84
2022/08/05 00:51:16;;;;;;;;;1.50;1.50;;;;;20.18;63.23;100900.88;5019141;28;45559;-86
2022/08/05 00:53:42;;;;;;;;;4.00;2.00;;;;;20.25;63.19;100869.94;5015739;28;45631;-86
2022/08/05 00:56:08;;;;;;;;;4.00;3.75;;;;;20.20;63.43;100823.53;5015503;28;46792;-83
2022/08/05 00:58:33;;;;;;;;;3.00;3.00;;;;;20.26;63.31;100884.06;5018466;28;46119;-82
2022/08/05 01:00:59;;;;;;;;;3.50;2.00;;;;;20.19;62.64;100954.94;5020057;28;45536;-84
2022/08/05 01:03:24;;;;;;;;;3.00;3.00;;;;;20.09;63.38;100934.59;5021396;28;45892;-85
2022/08/05 01:09:11;;;;;;;;;3.00;2.50;;;;;20.07;63.61;100777.00;5017880;28;45524;-86
2022/08/05 01:11:39;;;;;;;;;3.25;3.00;;;;;20.18;63.45;100845.00;5017983;28;45596;-85
2022/08/05 01:14:18;;;;;;;;;4.25;3.25;;;;;20.11;63.02;100969.88;5018253;28;45476;-83
2022/08/05 01:17:07;;;;;;;;;3.00;3.00;;;;;20.11;63.62;100899.84;5018221;28;46650;-89
2022/08/05 01:19:35;;;;;;;;;3.75;3.25;;;;;20.05;63.39;100925.28;5021160;28;45771;-86
2022/08/05 01:22:06;;;;;;;;;3.00;3.00;;;;;19.99;63.10;100923.25;5022263;28;45472;-88
2022/08/05 01:24:40;;;;;;;;;3.00;3.00;;;;;19.94;63.35;100965.47;5006411;28;45525;-84
2022/08/05 01:27:17;;;;;;;;;3.50;3.00;;;;;19.86;63.81;100922.91;5024293;28;45813;-84
2022/08/05 01:29:51;;;;;;;;;3.00;3.00;;;;;19.76;63.88;100866.34;5023489;28;46248;-85
2022/08/05 01:32:22;;;;;;;;;4.00;3.00;;;;;19.65;63.98;100840.91;5021845;28;45710;-87
2022/08/05 01:34:53;;;;;;;;;3.00;3.00;;;;;19.71;64.48;100831.44;4999672;28;45643;-84
2022/08/05 01:37:25;;;;;;;;;3.00;2.00;;;;;19.69;63.92;100815.66;4999788;28;47606;-88
2022/08/05 01:39:55;;;;;;;;;3.00;3.00;;;;;19.66;64.15;100764.63;5017373;28;46042;-85
2022/08/05 01:42:22;;;;;;;;;4.00;3.00;;;;;19.75;63.71;100792.91;5017480;28;45714;-85
2022/08/05 01:44:49;;;;;;;;;4.50;4.00;;;;;19.66;64.06;100821.28;5017545;28;45701;-89
2022/08/05 01:47:18;;;;;;;;;3.00;3.00;;;;;19.73;64.36;100834.78;5017476;28;45899;-86
2022/08/05 01:49:46;;;;;;;;;4.00;3.50;;;;;19.70;64.60;100821.81;4999835;28;47916;-86
2022/08/05 01:52:13;;;;;;;;;4.50;4.00;;;;;19.73;65.64;100841.91;5019384;28;45679;-85
2022/08/05 01:54:43;;;;;;;;;2.75;2.75;;;;;19.75;65.59;100855.91;5000244;28;45923;-87
2022/08/05 01:57:09;;;;;;;;;3.25;3.25;;;;;19.80;65.13;100858.91;5016714;28;45538;-86
2022/08/05 01:59:39;;;;;;;;;3.00;3.00;;;;;19.76;64.71;100826.47;5016301;28;45512;-85
2022/08/05 02:02:06;;;;;;;;;3.00;3.00;;;;;19.73;64.47;100802.03;5016055;28;45675;-81
2022/08/05 02:04:35;;;;;;;;;3.00;3.00;;;;;19.67;64.83;100806.19;4998395;28;45670;-82
2022/08/05 02:07:01;;;;;;;;;4.00;3.00;;;;;19.83;64.29;100832.81;4997869;28;46942;-83
2022/08/05 02:09:27;;;;;;;;;3.75;2.75;;;;;19.94;64.21;100840.47;5016046;28;46231;-87
2022/08/05 02:12:11;;;;;;;;;2.75;2.25;;;;;19.96;63.82;100859.78;5016488;28;45777;-84
2022/08/05 02:14:43;;;;;;;;;3.75;3.75;;;;;19.95;62.95;100855.44;4998048;28;45879;-85
2022/08/05 02:17:34;;;;;;;;;4.25;3.00;;;;;20.04;62.98;100853.63;4998113;28;47589;-85
2022/08/05 02:20:03;;;;;;;;;3.75;3.50;;;;;19.97;62.45;100847.31;5016221;28;46370;-85
2022/08/05 02:22:37;;;;;;;;;3.00;3.00;;;;;19.99;62.65;100854.09;5016731;28;45556;-85
2022/08/05 02:25:07;;;;;;;;;3.00;3.00;;;;;20.05;63.30;100880.06;5016207;28;45496;-81
2022/08/05 02:27:37;;;;;;;;;3.25;3.25;;;;;19.99;63.63;100864.75;5016055;28;46739;-83
2022/08/05 02:30:04;;;;;;;;;3.25;3.25;;;;;20.04;64.09;100881.03;5016872;28;46307;-84
2022/08/05 02:32:33;;;;;;;;;5.25;4.00;;;;;19.91;64.09;100880.72;5016881;28;45536;-84
2022/08/05 02:35:05;;;;;;;;;5.00;3.50;;;;;19.90;64.27;100902.97;5017056;28;45595;-87
2022/08/05 02:37:32;;;;;;;;;4.00;3.00;;;;;19.86;64.51;100904.28;5016717;28;46977;-87
2022/08/05 02:39:59;;;;;;;;;3.25;3.00;;;;;19.77;64.25;100883.97;4998426;28;48166;-87
2022/08/05 02:42:25;;;;;;;;;4.50;4.25;;;;;19.83;64.48;100917.06;5016264;28;45547;-82
2022/08/05 02:44:51;;;;;;;;;4.00;3.75;;;;;19.77;64.76;100859.22;5016216;28;45880;-84
2022/08/05 02:47:17;;;;;;;;;6.75;5.00;;;;;19.74;64.78;100777.94;4997645;28;46653;-85
2022/08/05 02:49:45;;;;;;;;;4.25;4.25;;;;;19.77;64.05;100814.84;4998335;28;47024;-83
2022/08/05 02:55:33;;;;;;;;;3.00;3.00;;;;;19.56;63.81;100793.19;5016431;28;45597;-85
2022/08/05 02:58:01;;;;;;;;;4.25;3.00;;;;;19.61;63.73;100804.16;5016126;28;46611;-87
2022/08/05 03:00:27;;;;;;;;;4.50;3.00;;;;;19.59;62.89;100824.78;5016366;28;46715;-87
2022/08/05 03:02:56;;;;;;;;;2.75;2.50;;;;;19.59;63.25;100838.91;5016325;28;45732;-86
2022/08/05 03:05:21;;;;;;;;;3.00;2.75;;;;;19.52;63.45;100850.34;5016277;28;45656;-85
2022/08/05 03:07:47;;;;;;;;;1.75;1.00;;;;;19.43;63.10;100848.63;5016044;28;46517;-84
2022/08/05 03:10:16;;;;;;;;;3.00;3.00;;;;;19.50;63.13;100895.66;5016370;28;45919;-89
2022/08/05 03:12:41;;;;;;;;;3.50;2.25;;;;;19.37;63.17;100879.31;4997511;28;45886;-87
2022/08/05 03:15:09;;;;;;;;;4.50;3.25;;;;;19.37;63.50;100878.47;5015420;28;45758;-85
2022/08/05 03:17:35;;;;;;;;;3.75;3.00;;;;;19.37;64.47;100863.38;5015370;28;46873;-85
2022/08/05 03:20:00;;;;;;;;;4.00;4.00;;;;;19.38;64.15;100850.94;5015187;28;46258;-86
2022/08/05 03:26:03;;;;;;;;;3.00;2.00;;;;;19.32;63.71;100855.03;5016347;28;45784;-83
2022/08/05 03:28:29;;;;;;;;;3.00;2.25;;;;;19.27;63.44;100866.13;5018042;28;46579;-83
2022/08/05 03:30:56;;;;;;;;;4.00;2.75;;;;;19.23;63.46;100858.63;4999672;28;48491;-85
2022/08/05 03:33:22;;;;;;;;;2.25;2.25;;;;;19.28;63.49;100865.13;5017880;28;45705;-83
2022/08/05 03:35:49;;;;;;;;;2.00;2.00;;;;;19.20;64.22;100843.03;5017745;28;45569;-86
2022/08/05 03:38:15;;;;;;;;;3.75;3.00;;;;;19.25;63.92;100867.28;5016121;28;46548;-85
2022/08/05 03:40:42;;;;;;;;;4.75;4.00;;;;;19.17;63.95;100867.22;5014948;28;45957;-87
2022/08/05 03:43:07;;;;;;;;;2.50;2.25;;;;;19.24;63.64;100881.56;5015476;28;45822;-85
2022/08/05 03:45:33;;;;;;;;;6.25;6.00;;;;;19.19;63.65;100871.41;5016961;28;45508;-83
2022/08/05 03:47:58;;;;;;;;;4.00;4.00;;;;;19.19;63.83;100871.41;5014887;28;45590;-87
2022/08/05 03:50:33;;;;;;;;;4.00;3.50;;;;;19.25;64.17;100862.81;5014998;28;46391;-88
2022/08/05 03:56:37;;;;;;;;;3.00;3.00;;;;;19.33;64.54;100890.41;5017740;28;45652;-88
2022/08/05 03:59:07;;;;;;;;;3.75;3.50;;;;;19.28;64.51;100878.44;5016901;28;45745;-87
2022/08/05 04:01:38;;;;;;;;;5.50;4.00;;;;;19.28;64.13;100865.13;5015644;28;46424;-87
2022/08/05 04:04:04;;;;;;;;;5.00;4.25;;;;;19.31;64.63;100857.84;5015214;28;45607;-86
2022/08/05 04:06:32;;;;;;;;;3.00;3.00;;;;;19.23;64.35;100855.97;5015375;28;45634;-88
2022/08/05 04:08:58;;;;;;;;;3.75;3.00;;;;;19.20;64.45;100845.69;5014750;28;46552;-83
2022/08/05 04:11:24;;;;;;;;;4.75;4.75;;;;;19.22;64.49;100849.00;5014955;28;46145;-87
2022/08/05 04:13:50;;;;;;;;;4.50;3.75;;;;;19.29;64.51;100864.16;5014897;28;45476;-88
2022/08/05 04:16:15;;;;;;;;;6.00;5.25;;;;;19.26;64.25;100861.81;4996744;28;45545;-86
2022/08/05 04:18:44;;;;;;;;;4.00;3.00;;;;;19.27;64.78;100863.47;4996676;28;48696;-87
2022/08/05 04:21:10;;;;;;;;;5.00;4.00;;;;;19.23;64.50;100871.91;4996495;28;47270;-87
2022/08/05 04:23:36;;;;;;;;;3.00;3.00;;;;;19.21;64.30;100868.59;5015059;28;45596;-87
2022/08/05 04:26:02;;;;;;;;;4.00;4.00;;;;;19.22;64.00;100876.41;5014678;28;45484;-89
2022/08/05 04:28:27;;;;;;;;;4.00;4.00;;;;;19.21;64.26;100874.75;5014572;28;46606;-89
2022/08/05 04:30:53;;;;;;;;;6.75;5.00;;;;;19.20;64.40;100869.59;5015091;28;45501;-89
2022/08/05 04:33:19;;;;;;;;;4.00;3.25;;;;;19.23;64.18;100866.59;5017107;28;45508;-89
2022/08/05 04:35:44;;;;;;;;;3.00;3.00;;;;;19.20;64.01;100866.94;5018492;28;45612;-86
2022/08/05 04:41:32;;;;;;;;;5.00;4.50;;;;;19.12;64.48;100872.19;5018718;28;45874;-86
2022/08/05 04:43:57;;;;;;;;;3.25;3.00;;;;;19.06;64.74;100865.69;5019082;28;45655;-86
2022/08/05 04:46:23;;;;;;;;;4.00;4.00;;;;;19.04;65.25;100867.69;5019226;28;45889;-84
2022/08/05 04:48:48;;;;;;;;;6.00;4.50;;;;;19.07;65.00;100883.28;5018204;28;46668;-87
2022/08/05 04:51:14;;;;;;;;;5.25;3.75;;;;;18.99;65.31;100869.16;5000795;28;47719;-86
2022/08/05 04:57:01;;;;;;;;;6.00;4.00;;;;;19.10;65.01;100890.13;5022942;28;45544;-87
2022/08/05 04:59:27;;;;;;;;;4.25;3.00;;;;;19.07;65.00;100888.59;5020275;28;45503;-87
2022/08/05 05:01:52;;;;;;;;;4.75;4.00;;;;;19.04;64.48;100883.63;5001042;28;47246;-88
2022/08/05 05:04:17;;;;;;;;;3.00;3.00;;;;;19.01;64.30;100877.78;5018769;28;45766;-87
2022/08/05 05:06:43;;;;;;;;;4.25;4.00;;;;;19.04;64.39;100894.25;5018012;28;45440;-85
2022/08/05 05:09:10;;;;;;;;;3.50;3.50;;;;;19.02;64.54;100888.25;5018059;28;45731;-86
2022/08/05 05:11:35;;;;;;;;;5.00;3.50;;;;;19.04;64.37;100898.72;5018045;28;45955;-86
2022/08/05 05:14:02;;;;;;;;;3.75;3.00;;;;;18.90;64.33;100884.16;5018310;28;45551;-88
2022/08/05 05:16:28;;;;;;;;;4.25;3.50;;;;;19.02;64.22;100911.31;5017781;28;45648;-87
2022/08/05 05:18:53;;;;;;;;;3.00;3.00;;;;;19.00;64.85;100913.31;4999351;28;46310;-86
2022/08/05 05:21:19;;;;;;;;;3.50;3.25;;;;;19.01;64.42;100914.94;4999171;28;48093;-87
2022/08/05 05:27:05;;;;;;;;;3.00;3.00;;;;;19.01;64.49;100923.75;5016128;28;45691;-83
2022/08/05 05:29:31;;;;;;;;;5.00;3.50;;;;;19.06;64.52;100936.56;4999132;28;48599;-85
2022/08/05 05:31:56;;;;;;;;;3.25;2.50;;;;;19.05;64.29;100946.38;5017947;28;45681;-87
2022/08/05 05:34:22;;;;;;;;;3.00;3.00;;;;;19.02;64.24;100953.81;5000236;28;46039;-86
2022/08/05 05:36:47;;;;;;;;;4.00;3.00;;;;;19.00;64.29;100961.09;5017303;28;45696;-85
2022/08/05 05:42:35;;;;;;;;;6.00;4.00;;;;;18.96;64.75;100962.38;5016452;28;45820;-84
2022/08/05 05:45:00;;;;;;;;;3.50;3.00;;;;;18.91;64.43;100954.03;5016352;28;45713;-81
2022/08/05 05:47:26;;;;;;;;;3.00;3.00;;;;;18.93;64.65;100962.72;4999853;28;45923;-88
2022/08/05 05:49:51;;;;;;;;;4.00;4.00;;;;;18.82;64.52;100947.84;4998579;28;47768;-84
2022/08/05 05:52:16;;;;;;;;;5.00;4.00;;;;;18.84;64.90;100954.66;4997738;28;47742;-77
2022/08/05 05:54:42;;;;;;;;;3.50;3.50;;;;;18.85;65.36;100960.81;5014878;28;45684;-81
2022/08/05 05:57:07;;;;;;;;;5.00;4.00;;;;;18.85;65.42;100968.78;5015009;28;45794;-80
2022/08/05 05:59:32;;;;;;;;;5.50;5.00;;;;;18.75;65.73;100957.41;5014980;28;45705;-80
2022/08/05 06:01:58;;;;;;;;;6.25;4.25;;;;;18.86;65.13;100981.91;4995563;28;46747;-80
2022/08/05 06:04:23;;;;;;;;;4.00;4.00;;;;;18.79;65.37;100956.09;5014669;28;45652;-76
2022/08/05 06:06:49;;;;;;;;;3.75;3.75;;;;;18.88;65.56;100963.19;5014860;28;45566;-78
2022/08/05 06:12:38;;;;;;;;;6.50;4.00;;;;;18.89;65.25;100974.63;5014269;28;45880;-77
2022/08/05 06:15:04;;;;;;;;;5.50;5.50;;;;;18.95;65.20;100990.75;5014575;28;45556;-78
2022/08/05 06:17:30;;;;;;;;;7.75;5.25;;;;;18.96;65.32;100986.28;5014541;28;45654;-76
2022/08/05 06:19:56;;;;;;;;;4.75;4.00;;;;;18.95;65.04;100984.63;5014156;28;45527;-78
2022/08/05 06:22:23;;;;;;;;;5.00;5.00;;;;;18.93;65.22;100992.75;5013848;28;45710;-76
2022/08/05 06:28:10;;;;;;;;;4.75;4.75;;;;;18.93;65.04;101003.38;5012457;28;45781;-77
2022/08/05 06:30:35;;;;;;;;;7.50;5.00;;;;;18.93;65.68;101003.38;5014114;28;46656;-77
2022/08/05 06:33:01;;;;;;;;;3.75;3.75;;;;;18.93;65.35;101005.19;4979858;28;47162;-77
2022/08/05 06:35:27;;;;;;;;;4.75;4.75;;;;;18.95;65.51;101005.88;5013301;28;45536;-77
2022/08/05 06:37:52;;;;;;;;;5.00;4.25;;;;;18.96;65.76;100999.56;5014044;28;45567;-76
2022/08/05 06:40:17;;;;;;;;;7.50;5.00;;;;;18.93;65.22;100995.41;5014056;28;45515;-79
2022/08/05 06:42:43;;;;;;;;;6.00;5.75;;;;;18.93;65.27;100991.91;4995506;28;47091;-76
2022/08/05 06:45:08;;;;;;;;;5.00;4.50;;;;;18.90;65.44;100987.72;5013896;28;45555;-77
2022/08/05 06:47:34;;;;;;;;;7.50;6.00;;;;;18.89;65.24;100990.56;5013936;28;45492;-76
2022/08/05 06:49:59;;;;;;;;;5.00;4.00;;;;;18.98;65.47;101001.09;4995856;28;46258;-77
2022/08/05 06:52:24;;;;;;;;;2.75;2.75;;;;;19.01;65.32;100999.94;5014045;28;45487;-77
2022/08/05 06:58:11;;;;;;;;;7.00;6.00;;;;;19.02;64.93;100989.16;5014088;28;45675;-77
2022/08/05 07:00:37;;;;;;;;;7.50;6.00;;;;;19.09;65.52;100998.19;5014237;28;46569;-77
2022/08/05 07:03:02;;;;;;;;;5.75;5.00;;;;;19.11;65.47;100998.84;5014755;28;45424;-77
2022/08/05 07:05:28;;;;;;;;;6.00;6.00;;;;;19.15;65.17;100991.44;5015050;28;45634;-78
2022/08/05 07:07:53;;;;;;;;;5.50;5.50;;;;;19.19;65.26;100998.09;5014300;28;45803;-76
2022/08/05 07:19:08;;;;;;;;;2.75;1.50;;;;;19.46;64.50;101005.13;5013529;28;45674;-76
2022/08/05 07:21:33;;;;;;;;;6.75;6.75;;;;;19.52;64.50;101015.13;5013438;28;45673;-77
2022/08/05 07:23:59;;;;;;;;;6.00;5.00;;;;;19.56;64.54;101011.16;5013125;28;45871;-76
2022/08/05 07:26:30;;;;;;;;;6.00;5.50;;;;;19.61;64.60;101025.66;5013329;28;45593;-77
2022/08/05 07:28:55;;;;;;;;;4.00;4.00;;;;;19.65;64.21;101004.88;5013274;28;45778;-77
2022/08/05 07:31:21;;;;;;;;;8.00;6.50;;;;;19.75;64.26;101026.06;5013264;28;45459;-77
2022/08/05 07:33:46;;;;;;;;;6.75;5.75;;;;;19.76;64.06;101025.09;5013306;28;45677;-77
2022/08/05 07:36:13;;;;;;;;;8.00;6.25;;;;;19.83;64.08;101026.09;5013232;28;45835;-75
2022/08/05 07:38:39;;;;;;;;;6.75;6.50;;;;;19.84;64.01;101027.75;4995260;28;45956;-76
2022/08/05 07:41:10;;;;;;;;;6.50;5.00;;;;;19.88;63.93;101029.94;5013120;28;45855;-76
2022/08/05 07:43:36;;;;;;;;;7.00;5.00;;;;;19.92;63.61;101049.91;5013251;28;45909;-76
2022/08/05 07:46:01;;;;;;;;;7.00;6.00;;;;;19.90;63.60;101043.94;5013252;28;45712;-77
2022/08/05 07:48:27;;;;;;;;;7.50;6.75;;;;;19.96;63.63;101047.78;5012853;28;45613;-77
2022/08/05 07:50:52;;;;;;;;;7.00;5.75;;;;;19.98;63.84;101048.44;5012935;28;46524;-77
2022/08/05 07:53:17;;;;;;;;;7.00;6.75;;;;;20.04;63.89;101051.31;5012939;28;46439;-77
2022/08/05 07:59:05;;;;;;;;;5.50;5.00;;;;;20.18;63.25;101054.38;5012870;28;45591;-76
2022/08/05 08:01:30;;;;;;;;;6.00;5.75;;;;;20.24;63.61;101059.88;5012739;28;46454;-77
2022/08/05 08:03:55;;;;;;;;;7.50;6.75;;;;;20.28;63.04;101061.22;5012665;28;46427;-76
2022/08/05 08:06:21;;;;;;;;;7.75;6.00;;;;;20.30;63.06;101067.19;5013737;28;45633;-78
2022/08/05 08:08:46;;;;;;;;;5.00;5.00;;;;;20.33;63.00;101066.09;4998879;28;45838;-78
2022/08/05 08:11:11;;;;;;;;;6.50;6.00;;;;;20.34;62.93;101070.44;5017053;28;46592;-79
2022/08/05 08:13:37;;;;;;;;;8.50;6.75;;;;;20.36;62.96;101068.41;4998640;28;47261;-80
2022/08/05 08:16:02;;;;;;;;;7.75;5.00;;;;;20.41;62.77;101080.25;5017061;28;45673;-79
2022/08/05 08:18:28;;;;;;;;;6.25;5.25;;;;;20.42;62.72;101073.09;5016860;28;45678;-80
2022/08/05 08:20:53;;;;;;;;;5.25;4.50;;;;;20.48;62.58;101080.44;5016857;28;46514;-78
2022/08/05 08:23:18;;;;;;;;;6.50;5.75;;;;;20.55;62.53;101094.78;5016432;28;46279;-79
2022/08/05 08:29:06;;;;;;;;;7.50;7.00;;;;;20.56;62.15;101099.13;5014941;28;45689;-79
2022/08/05 08:31:31;;;;;;;;;7.25;6.00;;;;;20.55;62.32;101093.97;5016585;28;46786;-79
2022/08/05 08:33:56;;;;;;;;;7.50;7.50;;;;;20.56;62.32;101101.78;5015915;28;45701;-78
2022/08/05 08:36:22;;;;;;;;;8.00;7.25;;;;;20.60;62.52;101102.28;5016844;28;46102;-79
2022/08/05 08:38:47;;;;;;;;;8.75;7.75;;;;;20.61;62.20;101109.28;5016887;28;45544;-79
2022/08/05 08:41:14;;;;;;;;;8.50;7.75;;;;;20.66;62.12;101104.31;5016444;28;46376;-79
2022/08/05 08:43:40;;;;;;;;;7.00;7.00;;;;;20.66;62.07;101096.31;5016613;28;46414;-79
2022/08/05 08:46:06;;;;;;;;;5.00;4.75;;;;;20.74;61.51;101115.81;5016130;28;45617;-81
2022/08/05 08:48:34;;;;;;;;;8.00;8.00;;;;;20.73;61.22;101116.78;5016575;28;45729;-76
2022/08/05 08:51:00;;;;;;;;;9.25;7.25;;;;;20.76;60.98;101126.31;5016177;28;45597;-80
2022/08/05 08:53:28;;;;;;;;;7.50;7.00;;;;;20.82;60.88;101112.34;5016221;28;46203;-78
2022/08/05 08:59:19;;;;;;;;;8.25;7.50;;;;;20.88;60.53;101117.84;5016221;28;45604;-78
2022/08/05 09:01:46;;;;;;;;;6.50;5.75;;;;;20.92;60.32;101126.34;5016469;28;45598;-79
2022/08/05 09:04:12;;;;;;;;;6.00;5.25;;;;;20.98;60.01;101119.53;5015615;28;45889;-80
2022/08/05 09:06:38;;;;;;;;;6.75;6.00;;;;;21.01;60.08;101138.69;5016029;28;45799;-78
2022/08/05 09:09:04;;;;;;;;;7.00;6.00;;;;;21.04;59.35;101126.88;5016288;28;45665;-74
2022/08/05 09:11:32;;;;;;;;;6.00;5.00;;;;;21.05;59.80;101128.53;5015750;28;46439;-79
2022/08/05 09:13:59;;;;;;;;;5.00;5.00;;;;;21.09;59.56;101129.88;4997548;28;47253;-79
2022/08/05 09:16:25;;;;;;;;;8.25;6.25;;;;;21.13;58.89;101129.38;5016067;28;45594;-77
2022/08/05 09:18:51;;;;;;;;;6.00;5.75;;;;;21.19;58.81;101127.91;5014941;28;45908;-78
2022/08/05 09:21:17;;;;;;;;;8.25;5.00;;;;;21.25;58.38;101136.09;5015716;28;45614;-78
2022/08/05 09:23:44;;;;;;;;;8.00;6.00;;;;;21.32;58.35;101136.28;5015386;28;47393;-77
2022/08/05 09:30:15;;;;;;;;;6.25;5.50;;;;;21.44;58.26;101132.25;5014820;28;45840;-79
2022/08/05 09:32:41;;;;;;;;;6.00;6.00;;;;;21.49;57.98;101139.75;5015627;28;45761;-78
2022/08/05 09:35:11;;;;;;;;;7.50;6.75;;;;;21.57;57.69;101129.94;5015199;28;46322;-78
2022/08/05 09:37:39;;;;;;;;;6.00;5.25;;;;;21.61;56.98;101160.59;5015510;28;45687;-77
2022/08/05 09:40:05;;;;;;;;;4.00;4.00;;;;;21.66;57.38;101136.09;5015551;28;45599;-78
2022/08/05 09:42:39;;;;;;;;;4.00;4.00;;;;;21.70;57.13;101135.56;5015219;28;46505;-78
2022/08/05 09:45:07;;;;;;;;;6.25;4.50;;;;;21.76;56.64;101137.56;5015331;28;46682;-75
2022/08/05 09:47:33;;;;;;;;;5.25;5.00;;;;;21.81;56.30;101145.06;5015650;28;45686;-77
2022/08/05 09:49:58;;;;;;;;;7.75;7.00;;;;;21.87;55.95;101139.06;4997719;28;45612;-80
2022/08/05 09:52:26;;;;;;;;;5.25;5.00;;;;;21.94;55.83;101147.22;5014718;28;45690;-77
2022/08/05 09:55:09;;;;;;;;;7.00;6.50;;;;;21.98;55.89;101138.75;5015288;28;46286;-77
2022/08/05 09:57:37;;;;;;;;;6.50;6.25;;;;;22.05;55.19;101139.75;4997710;28;45735;-80
2022/08/05 10:00:11;;;;;;;;;7.00;7.00;;;;;22.09;55.26;101143.72;5015603;28;45558;-78
2022/08/05 10:02:41;;;;;;;;;7.00;6.00;;;;;22.14;55.11;101156.56;5015390;28;46824;-78
2022/08/05 10:05:15;;;;;;;;;8.00;6.00;;;;;22.17;55.57;101148.22;5015321;28;46294;-78
2022/08/05 10:07:55;;;;;;;;;8.00;7.50;;;;;22.27;54.63;101159.53;5015252;28;45758;-77
2022/08/05 10:10:25;;;;;;;;;8.00;7.00;;;;;22.33;54.68;101142.00;5015452;28;45900;-77
2022/08/05 10:12:55;;;;;;;;;11.50;8.50;;;;;22.37;54.81;101148.66;4996744;28;47554;-77
2022/08/05 10:15:29;;;;;;;;;10.75;10.75;;;;;22.43;54.12;101147.97;5014925;28;46386;-76
2022/08/05 10:18:21;;;;;;;;;9.25;8.50;;;;;22.49;53.81;101153.47;5015291;28;45760;-78
2022/08/05 10:20:50;;;;;;;;;9.50;8.75;;;;;22.55;53.68;101166.13;5014989;28;45920;-77
2022/08/05 10:23:26;;;;;;;;;9.00;8.50;;;;;22.58;53.46;101156.91;5014950;28;46987;-77
2022/08/05 10:25:55;;;;;;;;;9.75;9.00;;;;;22.63;53.69;101149.22;5014452;28;47306;-75
2022/08/05 10:28:21;;;;;;;;;9.25;8.50;;;;;22.71;53.70;101140.34;5014256;28;45510;-74
2022/08/05 10:30:47;;;;;;;;;9.00;8.75;;;;;22.78;53.11;101152.84;5014933;28;45541;-77
2022/08/05 10:33:12;;;;;;;;;8.00;7.75;;;;;22.86;51.90;101142.13;5015112;28;46465;-78
2022/08/05 10:35:38;;;;;;;;;9.00;8.75;;;;;22.91;52.75;101149.59;5014594;28;46131;-77
2022/08/05 10:38:04;;;;;;;;;7.25;7.00;;;;;22.99;52.17;101138.88;5014634;28;45672;-75
2022/08/05 10:40:37;;;;;;;;;8.00;8.00;;;;;23.06;52.61;101139.81;5014415;28;45643;-77
2022/08/05 10:43:16;;;;;;;;;7.75;7.00;;;;;23.08;50.75;101151.19;5014223;28;46513;-79
2022/08/05 10:45:53;;;;;;;;;8.00;7.50;;;;;23.13;50.47;101135.44;4995720;28;47746;-78
2022/08/05 10:48:36;;;;;;;;;6.50;6.00;;;;;23.21;50.78;101156.75;5014306;28;45735;-76
2022/08/05 10:51:04;;;;;;;;;7.75;6.50;;;;;23.25;49.66;101134.03;5014171;28;45578;-77
2022/08/05 10:53:40;;;;;;;;;7.50;7.50;;;;;23.34;50.09;101145.47;5013662;28;46502;-77
2022/08/05 10:56:08;;;;;;;;;8.00;7.25;;;;;23.38;50.09;101142.25;5013823;28;46536;-77
2022/08/05 10:58:35;;;;;;;;;7.00;7.00;;;;;23.52;49.78;101154.06;4995957;28;45672;-77
2022/08/05 11:01:05;;;;;;;;;6.75;6.25;;;;;23.57;49.08;101153.53;5014143;28;45651;-77
2022/08/05 11:03:31;;;;;;;;;7.00;5.00;;;;;23.68;48.83;101158.44;5013571;28;47540;-77
2022/08/05 11:06:02;;;;;;;;;6.00;5.25;;;;;23.78;48.50;101157.19;5013789;28;45634;-78
2022/08/05 11:08:28;;;;;;;;;7.50;7.25;;;;;23.82;47.88;101154.97;5013686;28;45578;-77
2022/08/05 11:10:53;;;;;;;;;6.00;6.00;;;;;23.88;48.32;101156.06;5014002;28;45471;-78
2022/08/05 11:13:39;;;;;;;;;8.00;6.50;;;;;23.91;47.90;101161.09;5013806;28;46758;-78
2022/08/05 11:16:21;;;;;;;;;8.00;7.00;;;;;23.95;48.53;101170.41;5013901;28;45849;-77
2022/08/05 11:18:47;;;;;;;;;7.75;7.00;;;;;23.97;47.82;101171.88;5013793;28;45738;-78
2022/08/05 11:21:31;;;;;;;;;7.50;7.00;;;;;24.00;47.96;101157.31;5013703;28;45552;-79
2022/08/05 11:24:07;;;;;;;;;8.75;6.25;;;;;24.11;48.11;101170.25;5013341;28;46646;-78
2022/08/05 11:26:33;;;;;;;;;9.00;8.00;;;;;24.19;48.06;101160.28;5013776;28;46676;-80
2022/08/05 11:29:04;;;;;;;;;9.00;8.00;;;;;24.21;48.29;101163.63;5013298;28;45568;-78
2022/08/05 11:31:31;;;;;;;;;9.00;7.75;;;;;24.29;48.12;101172.59;5013910;28;45611;-80
2022/08/05 11:34:04;;;;;;;;;10.75;9.00;;;;;24.22;47.56;101167.16;5013419;28;46578;-78
2022/08/05 11:36:46;;;;;;;;;7.00;6.25;;;;;24.32;47.79;101172.22;5014042;28;46307;-77
2022/08/05 11:39:14;;;;;;;;;8.75;8.00;;;;;24.34;47.28;101163.00;5014037;28;45490;-78
2022/08/05 11:41:41;;;;;;;;;5.75;5.75;;;;;24.42;47.58;101170.94;5013217;28;45526;-77
2022/08/05 11:44:14;;;;;;;;;7.75;7.00;;;;;24.54;47.27;101174.81;5013719;28;46696;-76
2022/08/05 11:46:53;;;;;;;;;6.50;6.50;;;;;24.62;46.78;101171.19;4995203;28;47306;-78
2022/08/05 11:49:21;;;;;;;;;8.50;8.00;;;;;24.70;46.83;101197.06;5013626;28;45568;-79
2022/08/05 11:51:49;;;;;;;;;6.00;6.00;;;;;24.72;44.97;101182.47;5013692;28;45898;-77
2022/08/05 11:54:27;;;;;;;;;7.00;6.00;;;;;24.69;45.08;101174.78;5013503;28;45962;-78
2022/08/05 11:56:54;;;;;;;;;6.00;6.00;;;;;24.70;44.78;101179.13;5013169;28;45911;-77
2022/08/05 11:59:22;;;;;;;;;7.00;7.00;;;;;24.80;44.97;101184.19;5013330;28;45547;-78
2022/08/05 12:02:07;;;;;;;;;8.00;7.00;;;;;24.85;44.93;101193.34;5013218;28;45590;-77
2022/08/05 12:04:47;;;;;;;;;8.00;7.25;;;;;24.93;45.14;101193.28;5012907;28;45612;-77
2022/08/05 12:07:14;;;;;;;;;7.00;6.25;;;;;24.97;44.73;101191.88;5013200;28;46506;-77
2022/08/05 12:09:43;;;;;;;;;8.25;7.00;;;;;24.99;44.41;101180.97;5013498;28;45646;-78
2022/08/05 12:12:09;;;;;;;;;6.25;5.50;;;;;25.00;44.05;101196.84;5014553;28;45614;-78
2022/08/05 12:14:39;;;;;;;;;5.50;4.50;;;;;25.00;42.84;101194.16;5014377;28;46327;-78
2022/08/05 12:17:13;;;;;;;;;5.00;5.00;;;;;25.03;42.28;101183.06;5015421;28;46199;-77
2022/08/05 12:19:50;;;;;;;;;7.00;6.00;;;;;25.03;42.89;101190.28;5017497;28;45559;-77
2022/08/05 12:22:18;;;;;;;;;6.50;5.50;;;;;25.03;43.13;101201.84;5018092;28;45561;-77
2022/08/05 12:24:46;;;;;;;;;7.00;6.75;;;;;24.97;43.08;101185.66;5017391;28;46832;-77
2022/08/05 12:27:20;;;;;;;;;5.00;4.00;;;;;24.98;43.68;101190.03;5017602;28;48207;-76
2022/08/05 12:29:45;;;;;;;;;6.25;5.75;;;;;24.98;43.04;101185.50;5018356;28;45575;-75
2022/08/05 12:32:11;;;;;;;;;5.75;5.00;;;;;25.06;43.11;101188.03;5019413;28;45676;-78
2022/08/05 12:34:37;;;;;;;;;4.25;4.25;;;;;25.14;42.46;101194.31;5001915;28;47478;-77